createdAt,value
2022-09-03T00:00:21.709Z,9.45
2022-09-03T00:03:18.516Z,9.49
2022-09-03T00:05:55.477Z,9.58
2022-09-03T00:08:38.190Z,9.70
2022-09-03T00:11:22.217Z,9.84
2022-09-03T00:13:57.752Z,9.92
2022-09-03T00:16:28.700Z,9.96
2022-09-03T00:19:02.108Z,9.89
2022-09-03T00:21:50.333Z,9.79
2022-09-03T00:24:20.165Z,9.70
2022-09-03T00:27:00.372Z,9.66
2022-09-03T00:29:39.754Z,9.58
2022-09-03T00:32:23.428Z,9.46
2022-09-03T00:34:57.161Z,9.42
2022-09-03T00:37:23.803Z,9.36
2022-09-03T00:39:51.995Z,9.33
2022-09-03T00:45:15.512Z,9.25
2022-09-03T00:47:44.825Z,9.23
2022-09-03T00:50:32.317Z,9.23
2022-09-03T00:53:17.294Z,9.18
2022-09-03T00:56:04.104Z,9.15
2022-09-03T00:58:53.040Z,9.17
2022-09-03T01:01:33.876Z,9.16
2022-09-03T01:04:14.342Z,9.06
2022-09-03T01:06:54.904Z,8.95
2022-09-03T01:09:29.735Z,8.78
2022-09-03T01:12:13.721Z,8.64
2022-09-03T01:14:59.401Z,8.53
2022-09-03T01:17:42.911Z,8.49
2022-09-03T01:20:26.467Z,8.40
2022-09-03T01:23:20.481Z,8.35
2022-09-03T01:26:11.127Z,8.31
2022-09-03T01:29:08.891Z,8.30
2022-09-03T01:31:44.034Z,8.29
2022-09-03T01:34:39.380Z,8.28
2022-09-03T01:37:19.272Z,8.30
2022-09-03T01:40:27.245Z,8.32
2022-09-03T01:43:18.649Z,8.29
2022-09-03T01:46:00.748Z,8.26
2022-09-03T01:48:33.770Z,8.23
2022-09-03T01:51:15.696Z,8.23
2022-09-03T01:54:18.060Z,8.19
2022-09-03T01:57:35.312Z,8.25
2022-09-03T02:00:03.810Z,8.28
2022-09-03T02:02:32.284Z,8.27
2022-09-03T02:05:01.990Z,8.28
2022-09-03T02:07:34.264Z,8.32
2022-09-03T02:10:04.315Z,8.33
2022-09-03T02:12:33.917Z,8.31
2022-09-03T02:15:07.914Z,8.31
2022-09-03T02:17:35.872Z,8.27
2022-09-03T02:20:08.512Z,8.27
2022-09-03T02:22:35.577Z,8.27
2022-09-03T02:25:02.442Z,8.19
2022-09-03T02:27:29.345Z,8.22
2022-09-03T02:29:57.032Z,8.16
2022-09-03T02:32:23.723Z,8.16
2022-09-03T02:34:50.340Z,8.16
2022-09-03T02:37:18.668Z,8.11
2022-09-03T02:39:45.659Z,8.09
2022-09-03T02:45:47.683Z,8.07
2022-09-03T02:48:19.450Z,8.05
2022-09-03T02:50:46.043Z,8.05
2022-09-03T02:53:12.822Z,8.07
2022-09-03T02:55:39.531Z,8.03
2022-09-03T02:58:06.985Z,7.98
2022-09-03T03:00:33.842Z,7.98
2022-09-03T03:03:00.419Z,7.94
2022-09-03T03:05:36.253Z,7.91
2022-09-03T03:08:03.303Z,7.94
2022-09-03T03:10:30.014Z,7.88
2022-09-03T03:12:56.610Z,7.84
2022-09-03T03:15:23.298Z,7.82
2022-09-03T03:17:49.853Z,7.77
2022-09-03T03:20:16.544Z,7.74
2022-09-03T03:22:43.115Z,7.68
2022-09-03T03:25:10.066Z,7.71
2022-09-03T03:27:42.388Z,7.62
2022-09-03T03:30:11.209Z,7.59
2022-09-03T03:32:38.904Z,7.59
2022-09-03T03:35:07.120Z,7.59
2022-09-03T03:37:35.696Z,7.54
2022-09-03T03:40:03.182Z,7.48
2022-09-03T03:42:32.694Z,7.41
2022-09-03T03:44:59.386Z,7.37
2022-09-03T03:47:26.020Z,7.37
2022-09-03T03:49:52.791Z,7.35
2022-09-03T03:52:19.442Z,7.34
2022-09-03T03:54:46.177Z,7.33
2022-09-03T03:57:13.307Z,7.40
2022-09-03T03:59:40.089Z,7.43
2022-09-03T04:02:06.984Z,7.48
2022-09-03T04:04:33.701Z,7.52
2022-09-03T04:07:00.280Z,7.56
2022-09-03T04:09:27.018Z,7.56
2022-09-03T04:11:53.781Z,7.66
2022-09-03T04:14:20.452Z,7.63
2022-09-03T04:16:47.292Z,7.65
2022-09-03T04:19:14.140Z,7.75
2022-09-03T04:21:40.937Z,7.73
2022-09-03T04:24:07.841Z,7.75
2022-09-03T04:26:35.088Z,7.72
2022-09-03T04:29:09.815Z,7.70
2022-09-03T04:31:38.641Z,7.68
2022-09-03T04:34:06.737Z,7.67
2022-09-03T04:36:35.287Z,7.61
2022-09-03T04:39:02.379Z,7.59
2022-09-03T04:41:31.153Z,7.53
2022-09-03T04:46:40.147Z,7.55
2022-09-03T04:49:09.475Z,7.63
2022-09-03T04:51:38.496Z,7.68
2022-09-03T04:54:05.754Z,7.75
2022-09-03T04:56:35.004Z,7.87
2022-09-03T04:59:04.949Z,8.03
2022-09-03T05:01:35.346Z,8.18
2022-09-03T05:04:02.930Z,8.33
2022-09-03T05:06:31.644Z,8.48
2022-09-03T05:08:59.269Z,8.65
2022-09-03T05:11:27.495Z,8.98
2022-09-03T05:13:57.199Z,9.42
2022-09-03T05:16:28.506Z,9.83
2022-09-03T05:18:59.289Z,10.27
2022-09-03T05:21:26.372Z,11.07
2022-09-03T05:23:53.698Z,11.96
2022-09-03T05:26:23.293Z,12.89
2022-09-03T05:28:54.237Z,13.78
2022-09-03T05:31:23.723Z,14.60
2022-09-03T05:33:53.102Z,15.43
2022-09-03T05:36:25.705Z,16.11
2022-09-03T05:38:58.400Z,16.67
2022-09-03T05:41:26.814Z,17.16
2022-09-03T05:43:59.659Z,17.67
2022-09-03T05:46:32.866Z,18.14
2022-09-03T05:49:05.304Z,18.56
2022-09-03T05:51:32.947Z,18.98
2022-09-03T05:54:00.392Z,19.38
2022-09-03T05:56:29.553Z,19.87
2022-09-03T05:59:02.227Z,20.32
2022-09-03T06:01:34.671Z,20.82
2022-09-03T06:04:01.677Z,21.42
2022-09-03T06:06:30.647Z,21.91
2022-09-03T06:09:05.008Z,22.22
2022-09-03T06:11:37.453Z,22.48
2022-09-03T06:14:06.899Z,22.70
2022-09-03T06:16:35.306Z,22.83
2022-09-03T06:19:02.881Z,23.04
2022-09-03T06:21:29.947Z,23.29
2022-09-03T06:23:59.447Z,23.62
2022-09-03T06:26:28.723Z,23.97
2022-09-03T06:28:59.143Z,24.23
2022-09-03T06:31:26.645Z,24.45
2022-09-03T06:33:58.574Z,24.66
2022-09-03T06:36:37.731Z,24.88
2022-09-03T06:39:04.880Z,25.32
2022-09-03T06:41:35.482Z,25.61
2022-09-03T06:47:34.358Z,26.43
2022-09-03T06:50:02.078Z,26.29
2022-09-03T06:52:29.716Z,25.83
2022-09-03T06:54:56.306Z,25.40
2022-09-03T06:57:22.915Z,25.32
2022-09-03T06:59:49.751Z,25.33
2022-09-03T07:02:16.474Z,25.44
2022-09-03T07:04:44.208Z,25.49
2022-09-03T07:07:13.403Z,24.86
2022-09-03T07:09:41.629Z,24.88
2022-09-03T07:12:11.221Z,25.43
2022-09-03T07:14:37.923Z,25.62
2022-09-03T07:17:04.534Z,25.83
2022-09-03T07:19:31.110Z,25.61
2022-09-03T07:21:57.723Z,25.54
2022-09-03T07:24:25.092Z,25.57
2022-09-03T07:26:51.680Z,25.46
2022-09-03T07:29:20.888Z,25.10
2022-09-03T07:31:51.626Z,25.22
2022-09-03T07:34:18.738Z,25.46
2022-09-03T07:36:48.831Z,25.83
2022-09-03T07:39:16.619Z,25.60
2022-09-03T07:41:45.974Z,25.17
2022-09-03T07:44:15.477Z,25.05
2022-09-03T07:46:51.351Z,25.20
2022-09-03T07:49:26.715Z,24.87
2022-09-03T07:51:54.457Z,24.92
2022-09-03T07:54:23.676Z,24.71
2022-09-03T07:56:50.250Z,24.56
2022-09-03T07:59:17.041Z,24.50
2022-09-03T08:01:43.931Z,24.58
2022-09-03T08:04:11.080Z,24.71
2022-09-03T08:06:38.903Z,24.70
2022-09-03T08:09:08.635Z,24.76
2022-09-03T08:11:40.891Z,24.47
2022-09-03T08:14:10.742Z,24.14
2022-09-03T08:16:42.433Z,24.24
2022-09-03T08:19:09.436Z,24.16
2022-09-03T08:21:36.491Z,24.17
2022-09-03T08:24:03.333Z,24.34
2022-09-03T08:26:34.597Z,24.52
2022-09-03T08:29:01.868Z,24.62
2022-09-03T08:31:29.868Z,24.54
2022-09-03T08:33:59.394Z,24.75
2022-09-03T08:36:28.012Z,25.02
2022-09-03T08:38:56.981Z,25.44
2022-09-03T08:41:42.639Z,25.64
2022-09-03T08:44:32.638Z,25.30
2022-09-03T08:48:37.649Z,24.81
2022-09-03T08:51:07.818Z,24.56
2022-09-03T08:53:48.662Z,24.37
2022-09-03T08:56:24.944Z,24.49
2022-09-03T08:58:52.105Z,24.63
2022-09-03T09:01:36.399Z,24.60
2022-09-03T09:04:25.291Z,24.77
2022-09-03T09:07:05.148Z,24.87
2022-09-03T09:09:53.674Z,24.65
2022-09-03T09:12:42.847Z,24.81
2022-09-03T09:15:14.287Z,24.82
2022-09-03T09:18:11.279Z,24.76
2022-09-03T09:20:55.302Z,24.66
2022-09-03T09:23:31.329Z,24.50
2022-09-03T09:26:01.539Z,24.53
2022-09-03T09:28:35.790Z,24.02
2022-09-03T09:31:08.968Z,24.32
2022-09-03T09:33:36.675Z,24.15
2022-09-03T09:36:14.196Z,23.92
2022-09-03T09:38:41.946Z,23.77
2022-09-03T09:41:14.565Z,23.38
2022-09-03T09:43:51.512Z,23.55
2022-09-03T09:46:35.983Z,23.73
2022-09-03T09:49:22.807Z,23.63
2022-09-03T09:52:06.571Z,23.50
2022-09-03T09:54:33.461Z,23.08
2022-09-03T09:57:04.300Z,22.94
2022-09-03T09:59:34.382Z,22.83
2022-09-03T10:02:22.185Z,22.93
2022-09-03T10:04:55.045Z,22.63
2022-09-03T10:07:31.943Z,22.62
2022-09-03T10:10:15.081Z,22.44
2022-09-03T10:12:43.118Z,22.24
2022-09-03T10:15:42.482Z,22.04
2022-09-03T10:18:29.183Z,22.05
2022-09-03T10:21:12.403Z,22.22
2022-09-03T10:24:19.894Z,22.30
2022-09-03T10:26:46.909Z,22.14
2022-09-03T10:29:21.992Z,22.09
2022-09-03T10:32:10.593Z,22.18
2022-09-03T10:35:03.276Z,21.98
2022-09-03T10:37:57.553Z,22.08
2022-09-03T10:40:45.088Z,22.14
2022-09-03T10:43:32.719Z,22.17
2022-09-03T10:49:47.074Z,21.68
2022-09-03T10:52:27.111Z,21.41
2022-09-03T10:55:12.215Z,21.34
2022-09-03T10:57:49.394Z,21.20
2022-09-03T11:00:19.263Z,21.41
2022-09-03T11:03:03.030Z,21.44
2022-09-03T11:05:38.510Z,21.19
2022-09-03T11:08:17.933Z,21.29
2022-09-03T11:10:50.620Z,21.38
2022-09-03T11:13:36.656Z,21.23
2022-09-03T11:16:12.559Z,21.21
2022-09-03T11:18:57.409Z,21.12
2022-09-03T11:21:28.539Z,20.96
2022-09-03T11:24:07.695Z,20.63
2022-09-03T11:26:35.543Z,20.51
2022-09-03T11:29:06.043Z,20.50
2022-09-03T11:32:11.099Z,20.60
2022-09-03T11:34:49.038Z,20.56
2022-09-03T11:37:21.224Z,20.56
2022-09-03T11:39:59.787Z,20.68
2022-09-03T11:42:38.239Z,20.55
2022-09-03T11:45:23.652Z,20.42
2022-09-03T11:47:51.248Z,20.32
2022-09-03T11:50:25.714Z,20.24
2022-09-03T11:53:07.619Z,20.08
2022-09-03T11:55:53.401Z,19.92
2022-09-03T11:58:30.885Z,19.76
2022-09-03T12:00:59.141Z,19.75
2022-09-03T12:03:30.214Z,19.77
2022-09-03T12:06:20.970Z,19.80
2022-09-03T12:08:59.714Z,19.85
2022-09-03T12:11:26.208Z,19.97
2022-09-03T12:14:28.350Z,20.04
2022-09-03T12:17:06.601Z,20.05
2022-09-03T12:19:42.366Z,20.03
2022-09-03T12:22:17.165Z,20.04
2022-09-03T12:24:44.578Z,20.18
2022-09-03T12:27:24.942Z,20.39
2022-09-03T12:30:00.518Z,20.66
2022-09-03T12:32:37.222Z,20.78
2022-09-03T12:38:06.417Z,20.79
2022-09-03T12:40:35.466Z,20.65
2022-09-03T12:43:49.794Z,20.60
2022-09-03T12:46:16.350Z,20.55
2022-09-03T12:50:49.452Z,20.48
2022-09-03T12:53:26.352Z,20.40
2022-09-03T12:55:57.134Z,20.42
2022-09-03T12:58:41.021Z,20.43
2022-09-03T13:01:28.586Z,20.45
2022-09-03T13:04:11.898Z,20.43
2022-09-03T13:06:44.706Z,20.48
2022-09-03T13:09:11.686Z,20.31
2022-09-03T13:11:38.352Z,20.22
2022-09-03T13:14:11.385Z,20.07
2022-09-03T13:16:37.934Z,19.98
2022-09-03T13:19:34.571Z,19.89
2022-09-03T13:22:47.117Z,19.75
2022-09-03T13:25:27.320Z,19.60
2022-09-03T13:28:43.513Z,19.61
2022-09-03T13:31:35.476Z,19.61
2022-09-03T13:34:11.794Z,19.60
2022-09-03T13:36:46.792Z,19.55
2022-09-03T13:39:42.590Z,19.44
2022-09-03T13:42:34.675Z,19.36
2022-09-03T13:45:09.246Z,19.27
2022-09-03T13:48:37.084Z,19.19
2022-09-03T13:51:15.722Z,19.19
2022-09-03T13:54:36.563Z,19.25
2022-09-03T13:57:37.351Z,19.38
2022-09-03T14:00:15.478Z,19.49
2022-09-03T14:03:49.214Z,19.51
2022-09-03T14:06:38.489Z,19.46
2022-09-03T14:09:11.238Z,19.46
2022-09-03T14:11:50.031Z,19.38
2022-09-03T14:14:31.837Z,19.36
2022-09-03T14:17:18.753Z,19.29
2022-09-03T14:19:53.181Z,19.22
2022-09-03T14:22:31.258Z,19.20
2022-09-03T14:25:30.115Z,19.20
2022-09-03T14:28:17.477Z,19.19
2022-09-03T14:31:23.850Z,19.18
2022-09-03T14:34:26.056Z,19.19
2022-09-03T14:37:27.812Z,19.17
2022-09-03T14:40:44.604Z,19.09
2022-09-03T14:43:32.470Z,19.13
2022-09-03T14:46:23.457Z,19.18
2022-09-03T15:02:10.804Z,19.25
2022-09-03T15:04:56.886Z,19.25
2022-09-03T15:07:54.538Z,19.22
2022-09-03T15:10:45.075Z,19.24
2022-09-03T15:13:21.938Z,19.25
2022-09-03T15:16:02.114Z,19.25
2022-09-03T15:18:44.005Z,19.15
2022-09-03T15:22:04.426Z,19.09
2022-09-03T15:25:07.333Z,19.04
2022-09-03T15:27:52.668Z,18.97
2022-09-03T15:30:20.366Z,18.87
2022-09-03T15:32:59.180Z,18.83
2022-09-03T15:36:00.009Z,18.76
2022-09-03T15:38:30.281Z,18.73
2022-09-03T15:40:59.905Z,18.72
2022-09-03T15:43:32.106Z,18.67
2022-09-03T15:46:14.940Z,18.63
2022-09-03T15:48:53.122Z,18.58
2022-09-03T15:51:58.097Z,18.53
2022-09-03T15:55:04.891Z,18.47
2022-09-03T15:58:07.470Z,18.44
2022-09-03T16:00:49.494Z,18.41
2022-09-03T16:03:23.843Z,18.36
2022-09-03T16:06:20.841Z,18.27
2022-09-03T16:08:55.538Z,18.19
2022-09-03T16:11:29.352Z,18.20
2022-09-03T16:14:02.363Z,18.20
2022-09-03T16:16:43.044Z,18.19
2022-09-03T16:19:21.850Z,18.16
2022-09-03T16:25:04.200Z,18.08
2022-09-03T16:27:52.795Z,18.06
2022-09-03T16:31:06.013Z,17.94
2022-09-03T16:34:04.347Z,17.91
2022-09-03T16:36:43.330Z,17.82
2022-09-03T16:39:12.620Z,17.72
2022-09-03T16:41:56.224Z,17.65
2022-09-03T16:45:04.524Z,17.53
2022-09-03T16:47:59.181Z,17.42
2022-09-03T16:52:57.766Z,17.26
2022-09-03T16:56:00.132Z,17.21
2022-09-03T16:58:51.307Z,17.07
2022-09-03T17:01:30.647Z,16.94
2022-09-03T17:04:37.319Z,16.86
2022-09-03T17:07:21.931Z,16.74
2022-09-03T17:10:33.274Z,16.62
2022-09-03T17:13:37.471Z,16.53
2022-09-03T17:16:24.606Z,16.41
2022-09-03T17:19:12.047Z,16.29
2022-09-03T17:21:59.272Z,16.17
2022-09-03T17:24:41.552Z,16.07
2022-09-03T17:27:38.847Z,15.90
2022-09-03T17:30:27.896Z,15.81
2022-09-03T17:33:37.887Z,15.71
2022-09-03T17:36:04.456Z,15.57
2022-09-03T17:39:03.104Z,15.51
2022-09-03T17:41:43.255Z,15.40
2022-09-03T17:44:24.722Z,15.31
2022-09-03T17:47:22.383Z,15.21
2022-09-03T17:49:52.715Z,15.14
2022-09-03T17:52:30.610Z,15.05
2022-09-03T17:55:02.285Z,14.94
2022-09-03T17:57:48.868Z,14.80
2022-09-03T18:00:33.508Z,14.64
2022-09-03T18:03:18.730Z,14.46
2022-09-03T18:06:09.866Z,14.22
2022-09-03T18:08:46.628Z,14.08
2022-09-03T18:11:29.261Z,13.93
2022-09-03T18:14:29.889Z,13.85
2022-09-03T18:16:59.587Z,13.76
2022-09-03T18:20:02.665Z,13.70
2022-09-03T18:22:56.806Z,13.59
2022-09-03T18:25:46.749Z,13.53
2022-09-03T18:28:37.527Z,13.42
2022-09-03T18:31:23.179Z,13.40
2022-09-03T18:34:08.367Z,13.33
2022-09-03T18:36:54.195Z,13.24
2022-09-03T18:39:45.771Z,13.15
2022-09-03T18:42:43.158Z,13.03
2022-09-03T18:46:17.549Z,12.97
2022-09-03T18:48:48.549Z,12.90
2022-09-03T18:54:14.393Z,12.75
2022-09-03T18:57:04.886Z,12.62
2022-09-03T19:00:17.931Z,12.52
2022-09-03T19:03:30.790Z,12.41
2022-09-03T19:06:34.954Z,12.31
2022-09-03T19:09:42.225Z,12.23
2022-09-03T19:13:13.070Z,12.19
2022-09-03T19:16:21.102Z,12.16
2022-09-03T19:19:31.643Z,12.17
2022-09-03T19:22:31.183Z,12.16
2022-09-03T19:25:34.557Z,12.08
2022-09-03T19:28:36.274Z,11.99
2022-09-03T19:31:40.554Z,11.93
2022-09-03T19:34:43.063Z,11.88
2022-09-03T19:37:40.714Z,11.79
2022-09-03T19:40:36.070Z,11.73
2022-09-03T19:43:38.936Z,11.64
2022-09-03T19:46:55.365Z,11.61
2022-09-03T19:50:22.382Z,11.57
2022-09-03T19:53:13.275Z,11.54
2022-09-03T19:56:07.581Z,11.52
2022-09-03T19:58:57.268Z,11.44
2022-09-03T20:01:48.465Z,11.43
2022-09-03T20:04:37.184Z,11.41
2022-09-03T20:07:27.734Z,11.37
2022-09-03T20:10:15.663Z,11.38
2022-09-03T20:12:50.683Z,11.31
2022-09-03T20:15:20.134Z,11.23
2022-09-03T20:18:11.752Z,11.12
2022-09-03T20:20:38.386Z,11.07
2022-09-03T20:23:20.103Z,11.03
2022-09-03T20:26:10.410Z,11.03
2022-09-03T20:28:55.659Z,10.99
2022-09-03T20:31:40.307Z,10.97
2022-09-03T20:34:19.246Z,10.96
2022-09-03T20:37:11.296Z,10.94
2022-09-03T20:40:09.987Z,10.89
2022-09-03T20:43:09.040Z,10.84
2022-09-03T20:46:02.902Z,10.88
2022-09-03T20:48:32.765Z,10.95
2022-09-03T20:54:52.633Z,11.11
2022-09-03T20:57:40.192Z,11.15
2022-09-03T21:00:14.133Z,11.20
2022-09-03T21:03:08.264Z,11.24
2022-09-03T21:05:58.055Z,11.25
2022-09-03T21:08:39.036Z,11.31
2022-09-03T21:11:19.033Z,11.29
2022-09-03T21:13:53.639Z,11.27
2022-09-03T21:16:54.451Z,11.13
2022-09-03T21:19:40.102Z,11.06
2022-09-03T21:22:12.844Z,10.93
2022-09-03T21:25:03.730Z,10.77
2022-09-03T21:27:38.080Z,10.75
2022-09-03T21:30:10.486Z,10.68
2022-09-03T21:32:52.852Z,10.72
2022-09-03T21:35:42.978Z,10.75
2022-09-03T21:38:17.539Z,10.78
2022-09-03T21:40:55.103Z,10.79
2022-09-03T21:43:42.775Z,10.85
2022-09-03T21:46:17.492Z,10.85
2022-09-03T21:48:56.545Z,10.79
2022-09-03T21:51:51.281Z,10.79
2022-09-03T21:54:37.420Z,10.74
2022-09-03T21:57:18.853Z,10.70
2022-09-03T22:00:01.272Z,10.76
2022-09-03T22:05:56.756Z,10.85
2022-09-03T22:08:27.975Z,10.94
2022-09-03T22:11:05.871Z,11.01
2022-09-03T22:13:44.979Z,11.01
2022-09-03T22:16:26.682Z,11.00
2022-09-03T22:18:54.692Z,10.94
2022-09-03T22:21:36.459Z,10.85
2022-09-03T22:24:24.861Z,10.74
2022-09-03T22:26:54.511Z,10.69
2022-09-03T22:29:43.155Z,10.66
2022-09-03T22:32:23.206Z,10.62
2022-09-03T22:34:57.533Z,10.56
2022-09-03T22:37:47.417Z,10.48
2022-09-03T22:40:26.327Z,10.43
2022-09-03T22:43:00.929Z,10.39
2022-09-03T22:45:46.006Z,10.39
2022-09-03T22:48:20.477Z,10.40
2022-09-03T22:51:00.566Z,10.47
2022-09-03T22:55:45.705Z,10.52
2022-09-03T22:58:18.152Z,10.52
2022-09-03T23:00:59.293Z,10.56
2022-09-03T23:03:38.239Z,10.57
2022-09-03T23:06:10.269Z,10.56
2022-09-03T23:08:48.950Z,10.49
2022-09-03T23:11:27.008Z,10.47
2022-09-03T23:14:06.377Z,10.43
2022-09-03T23:16:42.740Z,10.41
2022-09-03T23:22:05.322Z,10.33
2022-09-03T23:24:47.801Z,10.20
2022-09-03T23:27:19.148Z,10.12
2022-09-03T23:29:53.132Z,10.06
2022-09-03T23:32:19.963Z,10.04
2022-09-03T23:34:46.646Z,10.03
2022-09-03T23:37:34.922Z,10.01
2022-09-03T23:40:27.300Z,9.99
2022-09-03T23:43:01.991Z,9.90
2022-09-03T23:45:42.092Z,9.90
2022-09-03T23:48:27.240Z,9.82
2022-09-03T23:51:37.202Z,9.79
2022-09-03T23:54:35.546Z,9.75
2022-09-03T23:57:08.581Z,9.74
2022-09-03T23:59:35.216Z,9.73
